sensor_id;sensor_type;location;lat;lon;timestamp;temperature;humidity
32769;DHT22;23049;54.304;8.826;2022-10-29T00:01:36;14.20;99.90
32769;DHT22;23049;54.304;8.826;2022-10-29T00:04:02;14.20;99.90
32769;DHT22;23049;54.304;8.826;2022-10-29T00:06:27;14.20;99.90
32769;DHT22;23049;54.304;8.826;2022-10-29T00:08:53;14.10;99.90
32769;DHT22;23049;54.304;8.826;2022-10-29T00:11:19;14.10;99.90
32769;DHT22;23049;54.304;8.826;2022-10-29T00:13:45;14.00;99.90
32769;DHT22;23049;54.304;8.826;2022-10-29T00:16:15;13.90;99.90
32769;DHT22;23049;54.304;8.826;2022-10-29T00:18:41;13.90;99.90
32769;DHT22;23049;54.304;8.826;2022-10-29T00:21:09;13.70;99.90
32769;DHT22;23049;54.304;8.826;2022-10-29T00:23:35;13.60;99.90
32769;DHT22;23049;54.304;8.826;2022-10-29T00:26:01;13.60;99.90
32769;DHT22;23049;54.304;8.826;2022-10-29T00:28:27;13.60;99.90
32769;DHT22;23049;54.304;8.826;2022-10-29T00:30:52;13.60;99.90
32769;DHT22;23049;54.304;8.826;2022-10-29T00:33:18;13.60;99.90
32769;DHT22;23049;54.304;8.826;2022-10-29T00:35:58;13.60;99.90
32769;DHT22;23049;54.304;8.826;2022-10-29T00:38:24;13.60;99.90
32769;DHT22;23049;54.304;8.826;2022-10-29T00:40:50;13.60;99.90
32769;DHT22;23049;54.304;8.826;2022-10-29T00:43:17;13.60;99.90
32769;DHT22;23049;54.304;8.826;2022-10-29T00:45:52;13.60;99.90
32769;DHT22;23049;54.304;8.826;2022-10-29T00:48:19;13.50;99.90
32769;DHT22;23049;54.304;8.826;2022-10-29T00:50:45;13.50;99.90
32769;DHT22;23049;54.304;8.826;2022-10-29T00:53:11;13.40;99.90
32769;DHT22;23049;54.304;8.826;2022-10-29T00:55:37;13.30;99.90
32769;DHT22;23049;54.304;8.826;2022-10-29T00:58:03;13.30;99.90
32769;DHT22;23049;54.304;8.826;2022-10-29T01:00:28;13.30;99.90
32769;DHT22;23049;54.304;8.826;2022-10-29T01:02:54;13.30;99.90
32769;DHT22;23049;54.304;8.826;2022-10-29T01:05:20;13.20;99.90
32769;DHT22;23049;54.304;8.826;2022-10-29T01:07:47;13.30;99.90
32769;DHT22;23049;54.304;8.826;2022-10-29T01:10:13;13.10;99.90
32769;DHT22;23049;54.304;8.826;2022-10-29T01:17:56;13.00;99.90
32769;DHT22;23049;54.304;8.826;2022-10-29T01:30:59;12.80;99.90
32769;DHT22;23049;54.304;8.826;2022-10-29T01:38:39;12.60;99.90
32769;DHT22;23049;54.304;8.826;2022-10-29T01:43:38;12.50;99.90
32769;DHT22;23049;54.304;8.826;2022-10-29T01:46:10;12.40;99.90
32769;DHT22;23049;54.304;8.826;2022-10-29T01:48:38;12.40;99.90
32769;DHT22;23049;54.304;8.826;2022-10-29T01:51:09;12.30;99.90
32769;DHT22;23049;54.304;8.826;2022-10-29T01:53:36;12.20;99.90
32769;DHT22;23049;54.304;8.826;2022-10-29T01:56:02;12.20;99.90
32769;DHT22;23049;54.304;8.826;2022-10-29T01:58:27;12.10;99.90
32769;DHT22;23049;54.304;8.826;2022-10-29T02:01:09;12.00;99.90
32769;DHT22;23049;54.304;8.826;2022-10-29T02:11:43;11.70;99.90
32769;DHT22;23049;54.304;8.826;2022-10-29T02:14:11;11.60;99.90
32769;DHT22;23049;54.304;8.826;2022-10-29T02:16:39;11.60;99.90
32769;DHT22;23049;54.304;8.826;2022-10-29T02:19:05;11.50;99.90
32769;DHT22;23049;54.304;8.826;2022-10-29T02:21:30;11.50;99.90
32769;DHT22;23049;54.304;8.826;2022-10-29T02:23:55;11.50;99.90
32769;DHT22;23049;54.304;8.826;2022-10-29T02:26:21;11.70;99.90
32769;DHT22;23049;54.304;8.826;2022-10-29T02:28:46;11.70;99.90
32769;DHT22;23049;54.304;8.826;2022-10-29T02:31:12;11.70;99.90
32769;DHT22;23049;54.304;8.826;2022-10-29T02:33:38;11.80;99.90
32769;DHT22;23049;54.304;8.826;2022-10-29T02:36:03;11.90;99.90
32769;DHT22;23049;54.304;8.826;2022-10-29T02:38:29;11.90;99.90
32769;DHT22;23049;54.304;8.826;2022-10-29T02:40:54;11.90;99.90
32769;DHT22;23049;54.304;8.826;2022-10-29T02:43:20;11.90;99.90
32769;DHT22;23049;54.304;8.826;2022-10-29T02:45:45;12.00;99.90
32769;DHT22;23049;54.304;8.826;2022-10-29T02:48:11;12.00;99.90
32769;DHT22;23049;54.304;8.826;2022-10-29T02:50:36;12.00;99.90
32769;DHT22;23049;54.304;8.826;2022-10-29T02:53:02;12.10;99.90
32769;DHT22;23049;54.304;8.826;2022-10-29T02:55:27;12.10;99.90
32769;DHT22;23049;54.304;8.826;2022-10-29T02:57:53;12.10;99.90
32769;DHT22;23049;54.304;8.826;2022-10-29T03:00:18;12.10;99.90
32769;DHT22;23049;54.304;8.826;2022-10-29T03:02:44;12.00;99.90
32769;DHT22;23049;54.304;8.826;2022-10-29T03:05:09;12.00;99.90
32769;DHT22;23049;54.304;8.826;2022-10-29T03:07:35;11.90;99.90
32769;DHT22;23049;54.304;8.826;2022-10-29T03:10:05;11.80;99.90
32769;DHT22;23049;54.304;8.826;2022-10-29T03:12:31;11.70;99.90
32769;DHT22;23049;54.304;8.826;2022-10-29T03:14:57;11.70;99.90
32769;DHT22;23049;54.304;8.826;2022-10-29T03:17:23;11.80;99.90
32769;DHT22;23049;54.304;8.826;2022-10-29T03:19:48;11.90;99.90
32769;DHT22;23049;54.304;8.826;2022-10-29T03:22:14;11.90;99.90
32769;DHT22;23049;54.304;8.826;2022-10-29T03:24:39;11.90;99.90
32769;DHT22;23049;54.304;8.826;2022-10-29T03:27:05;11.90;99.90
32769;DHT22;23049;54.304;8.826;2022-10-29T03:29:30;12.00;99.90
32769;DHT22;23049;54.304;8.826;2022-10-29T03:31:56;11.90;99.90
32769;DHT22;23049;54.304;8.826;2022-10-29T03:34:21;11.90;99.90
32769;DHT22;23049;54.304;8.826;2022-10-29T03:36:47;11.90;99.90
32769;DHT22;23049;54.304;8.826;2022-10-29T03:39:12;11.90;99.90
32769;DHT22;23049;54.304;8.826;2022-10-29T03:41:38;11.90;99.90
32769;DHT22;23049;54.304;8.826;2022-10-29T03:44:03;11.90;99.90
32769;DHT22;23049;54.304;8.826;2022-10-29T03:46:29;11.90;99.90
32769;DHT22;23049;54.304;8.826;2022-10-29T03:48:54;11.90;99.90
32769;DHT22;23049;54.304;8.826;2022-10-29T03:51:20;11.90;99.90
32769;DHT22;23049;54.304;8.826;2022-10-29T03:53:45;11.90;99.90
32769;DHT22;23049;54.304;8.826;2022-10-29T03:56:11;11.90;99.90
32769;DHT22;23049;54.304;8.826;2022-10-29T03:58:36;11.90;99.90
32769;DHT22;23049;54.304;8.826;2022-10-29T04:01:03;11.80;99.90
32769;DHT22;23049;54.304;8.826;2022-10-29T04:03:29;11.80;99.90
32769;DHT22;23049;54.304;8.826;2022-10-29T04:05:55;11.70;99.90
32769;DHT22;23049;54.304;8.826;2022-10-29T04:08:21;11.60;99.90
32769;DHT22;23049;54.304;8.826;2022-10-29T04:10:47;11.60;99.90
32769;DHT22;23049;54.304;8.826;2022-10-29T04:13:13;11.60;99.90
32769;DHT22;23049;54.304;8.826;2022-10-29T04:15:39;11.70;99.90
32769;DHT22;23049;54.304;8.826;2022-10-29T04:18:05;11.70;99.90
32769;DHT22;23049;54.304;8.826;2022-10-29T04:20:31;11.80;99.90
32769;DHT22;23049;54.304;8.826;2022-10-29T04:22:56;11.90;99.90
32769;DHT22;23049;54.304;8.826;2022-10-29T04:25:22;11.90;99.90
32769;DHT22;23049;54.304;8.826;2022-10-29T04:27:47;11.80;99.90
32769;DHT22;23049;54.304;8.826;2022-10-29T04:30:13;11.80;99.90
32769;DHT22;23049;54.304;8.826;2022-10-29T04:32:38;11.80;99.90
32769;DHT22;23049;54.304;8.826;2022-10-29T04:35:04;11.70;99.90
32769;DHT22;23049;54.304;8.826;2022-10-29T04:37:30;11.70;99.90
32769;DHT22;23049;54.304;8.826;2022-10-29T04:39:55;11.70;99.90
32769;DHT22;23049;54.304;8.826;2022-10-29T04:42:21;11.70;99.90
32769;DHT22;23049;54.304;8.826;2022-10-29T04:44:46;11.70;99.90
32769;DHT22;23049;54.304;8.826;2022-10-29T04:47:12;11.60;99.90
32769;DHT22;23049;54.304;8.826;2022-10-29T04:49:37;11.70;99.90
32769;DHT22;23049;54.304;8.826;2022-10-29T04:52:03;11.50;99.90
32769;DHT22;23049;54.304;8.826;2022-10-29T04:54:28;11.40;99.90
32769;DHT22;23049;54.304;8.826;2022-10-29T04:56:54;11.50;99.90
32769;DHT22;23049;54.304;8.826;2022-10-29T04:59:19;11.50;99.90
32769;DHT22;23049;54.304;8.826;2022-10-29T05:01:45;11.60;99.90
32769;DHT22;23049;54.304;8.826;2022-10-29T05:06:25;11.60;99.90
32769;DHT22;23049;54.304;8.826;2022-10-29T05:08:51;11.60;99.90
32769;DHT22;23049;54.304;8.826;2022-10-29T05:11:16;11.60;99.90
32769;DHT22;23049;54.304;8.826;2022-10-29T05:13:42;11.80;99.90
32769;DHT22;23049;54.304;8.826;2022-10-29T05:16:09;11.90;99.90
32769;DHT22;23049;54.304;8.826;2022-10-29T05:18:35;12.00;99.90
32769;DHT22;23049;54.304;8.826;2022-10-29T05:21:01;12.10;99.90
32769;DHT22;23049;54.304;8.826;2022-10-29T05:23:27;12.10;99.90
32769;DHT22;23049;54.304;8.826;2022-10-29T05:25:53;12.20;99.90
32769;DHT22;23049;54.304;8.826;2022-10-29T05:28:19;12.20;99.90
32769;DHT22;23049;54.304;8.826;2022-10-29T05:30:46;12.20;99.90
32769;DHT22;23049;54.304;8.826;2022-10-29T05:33:13;12.10;99.90
32769;DHT22;23049;54.304;8.826;2022-10-29T05:35:39;12.10;99.90
32769;DHT22;23049;54.304;8.826;2022-10-29T05:38:05;12.10;99.90
32769;DHT22;23049;54.304;8.826;2022-10-29T05:40:30;12.10;99.90
32769;DHT22;23049;54.304;8.826;2022-10-29T05:42:56;12.10;99.90
32769;DHT22;23049;54.304;8.826;2022-10-29T05:45:22;12.10;99.90
32769;DHT22;23049;54.304;8.826;2022-10-29T05:47:47;12.10;99.90
32769;DHT22;23049;54.304;8.826;2022-10-29T05:50:13;12.10;99.90
32769;DHT22;23049;54.304;8.826;2022-10-29T05:52:39;12.20;99.90
32769;DHT22;23049;54.304;8.826;2022-10-29T05:55:05;12.30;99.90
32769;DHT22;23049;54.304;8.826;2022-10-29T05:57:30;12.30;99.90
32769;DHT22;23049;54.304;8.826;2022-10-29T05:59:56;12.30;99.90
32769;DHT22;23049;54.304;8.826;2022-10-29T06:02:22;12.30;99.90
32769;DHT22;23049;54.304;8.826;2022-10-29T06:04:47;12.30;99.90
32769;DHT22;23049;54.304;8.826;2022-10-29T06:07:12;12.40;99.90
32769;DHT22;23049;54.304;8.826;2022-10-29T06:09:38;12.40;99.90
32769;DHT22;23049;54.304;8.826;2022-10-29T06:12:04;12.30;99.90
32769;DHT22;23049;54.304;8.826;2022-10-29T06:14:29;12.40;99.90
32769;DHT22;23049;54.304;8.826;2022-10-29T06:16:55;12.40;99.90
32769;DHT22;23049;54.304;8.826;2022-10-29T06:19:20;12.50;99.90
32769;DHT22;23049;54.304;8.826;2022-10-29T06:21:46;12.60;99.90
32769;DHT22;23049;54.304;8.826;2022-10-29T06:24:11;12.70;99.90
32769;DHT22;23049;54.304;8.826;2022-10-29T06:26:38;12.70;99.90
32769;DHT22;23049;54.304;8.826;2022-10-29T06:29:04;12.80;99.90
32769;DHT22;23049;54.304;8.826;2022-10-29T06:31:29;12.80;99.90
32769;DHT22;23049;54.304;8.826;2022-10-29T06:33:55;12.70;99.90
32769;DHT22;23049;54.304;8.826;2022-10-29T06:36:20;12.70;99.90
32769;DHT22;23049;54.304;8.826;2022-10-29T06:38:46;12.70;99.90
32769;DHT22;23049;54.304;8.826;2022-10-29T06:41:12;12.70;99.90
32769;DHT22;23049;54.304;8.826;2022-10-29T06:43:37;12.80;99.90
32769;DHT22;23049;54.304;8.826;2022-10-29T06:46:03;12.80;99.90
32769;DHT22;23049;54.304;8.826;2022-10-29T06:48:28;12.90;99.90
32769;DHT22;23049;54.304;8.826;2022-10-29T06:50:54;13.00;99.90
32769;DHT22;23049;54.304;8.826;2022-10-29T06:53:19;13.00;99.90
32769;DHT22;23049;54.304;8.826;2022-10-29T06:55:45;13.00;99.90
32769;DHT22;23049;54.304;8.826;2022-10-29T06:58:11;13.00;99.90
32769;DHT22;23049;54.304;8.826;2022-10-29T07:00:37;13.10;99.90
32769;DHT22;23049;54.304;8.826;2022-10-29T07:03:03;13.20;99.90
32769;DHT22;23049;54.304;8.826;2022-10-29T07:05:29;13.20;99.90
32769;DHT22;23049;54.304;8.826;2022-10-29T07:07:55;13.30;99.90
32769;DHT22;23049;54.304;8.826;2022-10-29T07:10:21;13.30;99.90
32769;DHT22;23049;54.304;8.826;2022-10-29T07:12:47;13.20;99.90
32769;DHT22;23049;54.304;8.826;2022-10-29T07:15:12;13.10;99.90
32769;DHT22;23049;54.304;8.826;2022-10-29T07:17:38;13.00;99.90
32769;DHT22;23049;54.304;8.826;2022-10-29T07:20:04;13.00;99.90
32769;DHT22;23049;54.304;8.826;2022-10-29T07:22:30;13.00;99.90
32769;DHT22;23049;54.304;8.826;2022-10-29T07:24:55;13.00;99.90
32769;DHT22;23049;54.304;8.826;2022-10-29T07:27:21;13.00;99.90
32769;DHT22;23049;54.304;8.826;2022-10-29T07:29:46;13.10;99.90
32769;DHT22;23049;54.304;8.826;2022-10-29T07:32:12;13.10;99.90
32769;DHT22;23049;54.304;8.826;2022-10-29T07:34:37;13.10;99.90
32769;DHT22;23049;54.304;8.826;2022-10-29T07:37:03;13.20;99.90
32769;DHT22;23049;54.304;8.826;2022-10-29T07:39:28;13.20;99.90
32769;DHT22;23049;54.304;8.826;2022-10-29T07:41:54;13.20;99.90
32769;DHT22;23049;54.304;8.826;2022-10-29T07:44:19;13.30;99.90
32769;DHT22;23049;54.304;8.826;2022-10-29T07:46:45;13.30;99.90
32769;DHT22;23049;54.304;8.826;2022-10-29T07:49:10;13.40;99.90
32769;DHT22;23049;54.304;8.826;2022-10-29T07:51:36;13.40;99.90
32769;DHT22;23049;54.304;8.826;2022-10-29T07:54:01;13.50;99.90
32769;DHT22;23049;54.304;8.826;2022-10-29T07:56:27;13.40;99.90
32769;DHT22;23049;54.304;8.826;2022-10-29T07:58:52;13.40;99.90
32769;DHT22;23049;54.304;8.826;2022-10-29T08:01:18;13.30;99.90
32769;DHT22;23049;54.304;8.826;2022-10-29T08:03:44;13.30;99.90
32769;DHT22;23049;54.304;8.826;2022-10-29T08:06:09;13.30;99.90
32769;DHT22;23049;54.304;8.826;2022-10-29T08:08:34;13.30;99.90
32769;DHT22;23049;54.304;8.826;2022-10-29T08:11:00;13.30;99.90
32769;DHT22;23049;54.304;8.826;2022-10-29T08:13:26;13.30;99.90
32769;DHT22;23049;54.304;8.826;2022-10-29T08:15:52;13.20;99.90
32769;DHT22;23049;54.304;8.826;2022-10-29T08:18:17;13.20;99.90
32769;DHT22;23049;54.304;8.826;2022-10-29T08:20:43;13.30;99.90
32769;DHT22;23049;54.304;8.826;2022-10-29T08:23:09;13.30;99.90
32769;DHT22;23049;54.304;8.826;2022-10-29T08:25:34;13.20;99.90
32769;DHT22;23049;54.304;8.826;2022-10-29T08:28:05;13.30;99.90
32769;DHT22;23049;54.304;8.826;2022-10-29T08:30:31;13.20;99.90
32769;DHT22;23049;54.304;8.826;2022-10-29T08:32:57;13.20;99.90
32769;DHT22;23049;54.304;8.826;2022-10-29T08:35:22;13.20;99.90
32769;DHT22;23049;54.304;8.826;2022-10-29T08:37:48;13.30;99.90
32769;DHT22;23049;54.304;8.826;2022-10-29T08:40:16;13.30;99.90
32769;DHT22;23049;54.304;8.826;2022-10-29T08:45:27;13.50;99.90
32769;DHT22;23049;54.304;8.826;2022-10-29T08:50:35;13.60;99.90
32769;DHT22;23049;54.304;8.826;2022-10-29T08:53:08;13.60;99.90
32769;DHT22;23049;54.304;8.826;2022-10-29T08:55:39;13.60;99.90
32769;DHT22;23049;54.304;8.826;2022-10-29T08:58:10;13.60;99.90
32769;DHT22;23049;54.304;8.826;2022-10-29T09:00:40;13.60;99.90
32769;DHT22;23049;54.304;8.826;2022-10-29T09:03:10;13.70;99.90
32769;DHT22;23049;54.304;8.826;2022-10-29T09:05:44;13.70;99.90
32769;DHT22;23049;54.304;8.826;2022-10-29T09:10:44;13.80;99.90
32769;DHT22;23049;54.304;8.826;2022-10-29T09:20:54;13.90;99.90
32769;DHT22;23049;54.304;8.826;2022-10-29T09:26:01;13.80;99.90
32769;DHT22;23049;54.304;8.826;2022-10-29T09:28:54;13.80;99.90
32769;DHT22;23049;54.304;8.826;2022-10-29T09:33:45;13.80;99.90
32769;DHT22;23049;54.304;8.826;2022-10-29T09:36:13;13.90;99.90
32769;DHT22;23049;54.304;8.826;2022-10-29T09:38:41;13.90;99.90
32769;DHT22;23049;54.304;8.826;2022-10-29T09:41:10;14.00;99.90
32769;DHT22;23049;54.304;8.826;2022-10-29T09:51:34;14.30;99.90
32769;DHT22;23049;54.304;8.826;2022-10-29T09:54:01;14.20;99.90
32769;DHT22;23049;54.304;8.826;2022-10-29T09:56:28;14.20;99.90
32769;DHT22;23049;54.304;8.826;2022-10-29T09:58:55;14.20;99.90
32769;DHT22;23049;54.304;8.826;2022-10-29T10:01:21;14.20;99.90
32769;DHT22;23049;54.304;8.826;2022-10-29T10:03:47;14.10;99.90
32769;DHT22;23049;54.304;8.826;2022-10-29T10:06:15;14.20;99.90
32769;DHT22;23049;54.304;8.826;2022-10-29T10:11:21;14.10;99.90
32769;DHT22;23049;54.304;8.826;2022-10-29T10:13:51;14.10;99.90
32769;DHT22;23049;54.304;8.826;2022-10-29T10:16:24;14.10;99.90
32769;DHT22;23049;54.304;8.826;2022-10-29T10:18:50;14.10;99.90
32769;DHT22;23049;54.304;8.826;2022-10-29T10:21:26;14.30;99.90
32769;DHT22;23049;54.304;8.826;2022-10-29T10:23:52;14.30;99.90
32769;DHT22;23049;54.304;8.826;2022-10-29T10:30:04;14.40;99.90
32769;DHT22;23049;54.304;8.826;2022-10-29T10:31:48;14.60;99.90
32769;DHT22;23049;54.304;8.826;2022-10-29T10:34:21;14.60;99.90
32769;DHT22;23049;54.304;8.826;2022-10-29T10:39:18;14.70;99.90
32769;DHT22;23049;54.304;8.826;2022-10-29T10:41:44;14.70;99.90
32769;DHT22;23049;54.304;8.826;2022-10-29T10:44:09;14.70;99.90
32769;DHT22;23049;54.304;8.826;2022-10-29T10:46:37;14.80;99.90
32769;DHT22;23049;54.304;8.826;2022-10-29T10:51:35;14.80;99.90
32769;DHT22;23049;54.304;8.826;2022-10-29T10:54:03;14.80;99.90
32769;DHT22;23049;54.304;8.826;2022-10-29T10:56:29;14.80;99.90
32769;DHT22;23049;54.304;8.826;2022-10-29T10:59:03;14.80;99.90
32769;DHT22;23049;54.304;8.826;2022-10-29T11:01:49;14.90;99.90
32769;DHT22;23049;54.304;8.826;2022-10-29T11:04:19;15.00;99.90
32769;DHT22;23049;54.304;8.826;2022-10-29T11:06:49;14.90;99.90
32769;DHT22;23049;54.304;8.826;2022-10-29T11:09:18;14.90;99.90
32769;DHT22;23049;54.304;8.826;2022-10-29T11:11:46;14.90;99.90
32769;DHT22;23049;54.304;8.826;2022-10-29T11:14:17;14.80;99.90
32769;DHT22;23049;54.304;8.826;2022-10-29T11:16:51;14.80;99.90
32769;DHT22;23049;54.304;8.826;2022-10-29T11:19:32;14.80;99.90
32769;DHT22;23049;54.304;8.826;2022-10-29T11:24:31;14.80;99.90
32769;DHT22;23049;54.304;8.826;2022-10-29T11:29:45;14.90;99.90
32769;DHT22;23049;54.304;8.826;2022-10-29T11:32:14;14.90;99.90
32769;DHT22;23049;54.304;8.826;2022-10-29T11:39:53;15.00;99.90
32769;DHT22;23049;54.304;8.826;2022-10-29T11:42:21;15.00;99.90
32769;DHT22;23049;54.304;8.826;2022-10-29T11:44:46;15.10;99.90
32769;DHT22;23049;54.304;8.826;2022-10-29T11:49:56;15.00;99.90
32769;DHT22;23049;54.304;8.826;2022-10-29T11:52:32;15.10;99.90
32769;DHT22;23049;54.304;8.826;2022-10-29T11:55:04;15.00;99.90
32769;DHT22;23049;54.304;8.826;2022-10-29T11:57:40;15.00;99.90
32769;DHT22;23049;54.304;8.826;2022-10-29T12:00:22;15.20;99.90
32769;DHT22;23049;54.304;8.826;2022-10-29T12:10:39;15.10;99.90
32769;DHT22;23049;54.304;8.826;2022-10-29T12:16:07;15.10;99.90
32769;DHT22;23049;54.304;8.826;2022-10-29T12:26:16;15.10;99.90
32769;DHT22;23049;54.304;8.826;2022-10-29T12:28:45;15.20;99.90
32769;DHT22;23049;54.304;8.826;2022-10-29T12:39:02;15.20;99.90
32769;DHT22;23049;54.304;8.826;2022-10-29T12:43:57;15.20;99.90
32769;DHT22;23049;54.304;8.826;2022-10-29T12:46:31;15.20;99.90
32769;DHT22;23049;54.304;8.826;2022-10-29T12:56:21;15.10;99.90
32769;DHT22;23049;54.304;8.826;2022-10-29T12:58:56;15.10;99.90
32769;DHT22;23049;54.304;8.826;2022-10-29T13:11:47;15.20;99.90
32769;DHT22;23049;54.304;8.826;2022-10-29T13:14:15;15.20;99.90
32769;DHT22;23049;54.304;8.826;2022-10-29T13:16:42;15.30;99.90
32769;DHT22;23049;54.304;8.826;2022-10-29T13:19:42;15.30;99.90
32769;DHT22;23049;54.304;8.826;2022-10-29T13:22:05;15.30;99.90
32769;DHT22;23049;54.304;8.826;2022-10-29T13:24:31;15.30;99.90
32769;DHT22;23049;54.304;8.826;2022-10-29T13:29:38;15.40;99.90
32769;DHT22;23049;54.304;8.826;2022-10-29T13:32:04;15.40;99.90
32769;DHT22;23049;54.304;8.826;2022-10-29T13:34:48;15.50;99.90
32769;DHT22;23049;54.304;8.826;2022-10-29T13:37:34;15.50;99.90
32769;DHT22;23049;54.304;8.826;2022-10-29T13:42:44;15.60;99.90
32769;DHT22;23049;54.304;8.826;2022-10-29T13:45:10;15.60;99.90
32769;DHT22;23049;54.304;8.826;2022-10-29T13:47:37;15.60;99.90
32769;DHT22;23049;54.304;8.826;2022-10-29T13:50:03;15.70;99.90
32769;DHT22;23049;54.304;8.826;2022-10-29T13:52:29;15.70;99.90
32769;DHT22;23049;54.304;8.826;2022-10-29T13:55:01;15.70;99.90
32769;DHT22;23049;54.304;8.826;2022-10-29T13:57:36;15.70;99.90
32769;DHT22;23049;54.304;8.826;2022-10-29T14:00:06;15.70;99.90
32769;DHT22;23049;54.304;8.826;2022-10-29T14:10:26;15.60;99.90
32769;DHT22;23049;54.304;8.826;2022-10-29T14:12:54;15.70;99.90
32769;DHT22;23049;54.304;8.826;2022-10-29T14:15:21;15.60;99.90
32769;DHT22;23049;54.304;8.826;2022-10-29T14:17:46;15.70;99.90
32769;DHT22;23049;54.304;8.826;2022-10-29T14:20:19;15.60;99.90
32769;DHT22;23049;54.304;8.826;2022-10-29T14:22:45;15.60;99.90
32769;DHT22;23049;54.304;8.826;2022-10-29T14:28:09;15.60;99.90
32769;DHT22;23049;54.304;8.826;2022-10-29T14:30:35;15.60;99.90
32769;DHT22;23049;54.304;8.826;2022-10-29T14:33:01;15.60;99.90
32769;DHT22;23049;54.304;8.826;2022-10-29T14:35:40;15.50;99.90
32769;DHT22;23049;54.304;8.826;2022-10-29T14:38:06;15.50;99.90
32769;DHT22;23049;54.304;8.826;2022-10-29T14:40:32;15.50;99.90
32769;DHT22;23049;54.304;8.826;2022-10-29T14:42:57;15.50;99.90
32769;DHT22;23049;54.304;8.826;2022-10-29T14:45:26;15.50;99.90
32769;DHT22;23049;54.304;8.826;2022-10-29T14:47:54;15.50;99.90
32769;DHT22;23049;54.304;8.826;2022-10-29T14:50:20;15.40;99.90
32769;DHT22;23049;54.304;8.826;2022-10-29T14:52:48;15.40;99.90
32769;DHT22;23049;54.304;8.826;2022-10-29T14:55:16;15.40;99.90
32769;DHT22;23049;54.304;8.826;2022-10-29T14:57:43;15.20;99.90
32769;DHT22;23049;54.304;8.826;2022-10-29T15:00:21;15.10;99.90
32769;DHT22;23049;54.304;8.826;2022-10-29T15:02:46;15.10;99.90
32769;DHT22;23049;54.304;8.826;2022-10-29T15:05:24;15.00;99.90
32769;DHT22;23049;54.304;8.826;2022-10-29T15:07:50;15.00;99.90
32769;DHT22;23049;54.304;8.826;2022-10-29T15:12:44;15.00;99.90
32769;DHT22;23049;54.304;8.826;2022-10-29T15:20:18;15.00;99.90
32769;DHT22;23049;54.304;8.826;2022-10-29T15:22:43;15.00;99.90
32769;DHT22;23049;54.304;8.826;2022-10-29T15:25:15;15.10;99.90
32769;DHT22;23049;54.304;8.826;2022-10-29T15:27:43;15.10;99.90
32769;DHT22;23049;54.304;8.826;2022-10-29T15:30:18;15.10;99.90
32769;DHT22;23049;54.304;8.826;2022-10-29T15:32:44;15.20;99.90
32769;DHT22;23049;54.304;8.826;2022-10-29T15:35:10;15.30;99.90
32769;DHT22;23049;54.304;8.826;2022-10-29T15:37:42;15.30;99.90
32769;DHT22;23049;54.304;8.826;2022-10-29T15:42:36;15.10;99.90
32769;DHT22;23049;54.304;8.826;2022-10-29T15:50:08;15.10;99.90
32769;DHT22;23049;54.304;8.826;2022-10-29T15:52:41;15.10;99.90
32769;DHT22;23049;54.304;8.826;2022-10-29T15:57:39;15.00;99.90
32769;DHT22;23049;54.304;8.826;2022-10-29T16:00:05;15.00;99.90
32769;DHT22;23049;54.304;8.826;2022-10-29T16:02:31;15.00;99.90
32769;DHT22;23049;54.304;8.826;2022-10-29T16:04:56;15.00;99.90
32769;DHT22;23049;54.304;8.826;2022-10-29T16:07:22;15.00;99.90
32769;DHT22;23049;54.304;8.826;2022-10-29T16:09:48;15.00;99.90
32769;DHT22;23049;54.304;8.826;2022-10-29T16:12:16;15.10;99.90
32769;DHT22;23049;54.304;8.826;2022-10-29T16:14:42;15.00;99.90
32769;DHT22;23049;54.304;8.826;2022-10-29T16:17:17;14.90;99.90
32769;DHT22;23049;54.304;8.826;2022-10-29T16:19:43;14.90;99.90
32769;DHT22;23049;54.304;8.826;2022-10-29T16:22:12;14.90;99.90
32769;DHT22;23049;54.304;8.826;2022-10-29T16:24:38;14.90;99.90
32769;DHT22;23049;54.304;8.826;2022-10-29T16:27:09;14.90;99.90
32769;DHT22;23049;54.304;8.826;2022-10-29T16:29:35;14.80;99.90
32769;DHT22;23049;54.304;8.826;2022-10-29T16:32:01;14.80;99.90
32769;DHT22;23049;54.304;8.826;2022-10-29T16:34:26;14.80;99.90
32769;DHT22;23049;54.304;8.826;2022-10-29T16:36:52;14.70;99.90
32769;DHT22;23049;54.304;8.826;2022-10-29T16:39:17;14.70;99.90
32769;DHT22;23049;54.304;8.826;2022-10-29T16:41:43;14.70;99.90
32769;DHT22;23049;54.304;8.826;2022-10-29T16:44:08;14.80;99.90
32769;DHT22;23049;54.304;8.826;2022-10-29T16:46:34;14.80;99.90
32769;DHT22;23049;54.304;8.826;2022-10-29T16:48:59;14.70;99.90
32769;DHT22;23049;54.304;8.826;2022-10-29T16:51:25;14.70;99.90
32769;DHT22;23049;54.304;8.826;2022-10-29T16:53:50;14.70;99.90
32769;DHT22;23049;54.304;8.826;2022-10-29T16:56:17;14.60;99.90
32769;DHT22;23049;54.304;8.826;2022-10-29T16:58:42;14.60;99.90
32769;DHT22;23049;54.304;8.826;2022-10-29T17:01:08;14.50;99.90
32769;DHT22;23049;54.304;8.826;2022-10-29T17:03:36;14.60;99.90
32769;DHT22;23049;54.304;8.826;2022-10-29T17:06:04;14.50;99.90
32769;DHT22;23049;54.304;8.826;2022-10-29T17:08:33;14.50;99.90
32769;DHT22;23049;54.304;8.826;2022-10-29T17:10:59;14.50;99.90
32769;DHT22;23049;54.304;8.826;2022-10-29T17:13:25;14.40;99.90
32769;DHT22;23049;54.304;8.826;2022-10-29T17:15:50;14.40;99.90
32769;DHT22;23049;54.304;8.826;2022-10-29T17:18:16;14.40;99.90
32769;DHT22;23049;54.304;8.826;2022-10-29T17:20:41;14.40;99.90
32769;DHT22;23049;54.304;8.826;2022-10-29T17:23:07;14.30;99.90
32769;DHT22;23049;54.304;8.826;2022-10-29T17:25:32;14.30;99.90
32769;DHT22;23049;54.304;8.826;2022-10-29T17:27:58;14.30;99.90
32769;DHT22;23049;54.304;8.826;2022-10-29T17:30:23;14.30;99.90
32769;DHT22;23049;54.304;8.826;2022-10-29T17:32:49;14.20;99.90
32769;DHT22;23049;54.304;8.826;2022-10-29T17:35:18;14.20;99.90
32769;DHT22;23049;54.304;8.826;2022-10-29T17:37:43;14.20;99.90
32769;DHT22;23049;54.304;8.826;2022-10-29T17:40:09;14.10;99.90
32769;DHT22;23049;54.304;8.826;2022-10-29T17:42:34;14.10;99.90
32769;DHT22;23049;54.304;8.826;2022-10-29T17:45:00;14.10;99.90
32769;DHT22;23049;54.304;8.826;2022-10-29T17:47:25;14.00;99.90
32769;DHT22;23049;54.304;8.826;2022-10-29T17:49:51;14.00;99.90
32769;DHT22;23049;54.304;8.826;2022-10-29T17:52:16;14.00;99.90
32769;DHT22;23049;54.304;8.826;2022-10-29T17:54:42;14.00;99.90
32769;DHT22;23049;54.304;8.826;2022-10-29T17:57:07;14.00;99.90
32769;DHT22;23049;54.304;8.826;2022-10-29T17:59:33;13.90;99.90
32769;DHT22;23049;54.304;8.826;2022-10-29T18:01:58;13.90;99.90
32769;DHT22;23049;54.304;8.826;2022-10-29T18:04:24;13.90;99.90
32769;DHT22;23049;54.304;8.826;2022-10-29T18:06:49;13.90;99.90
32769;DHT22;23049;54.304;8.826;2022-10-29T18:09:15;13.90;99.90
32769;DHT22;23049;54.304;8.826;2022-10-29T18:11:41;13.90;99.90
32769;DHT22;23049;54.304;8.826;2022-10-29T18:14:06;13.90;99.90
32769;DHT22;23049;54.304;8.826;2022-10-29T18:16:32;13.90;99.90